Pagrindinis puslapis
METAR-TAF:

METAR-TAF

Oro uostai :

Florø, Norvegija

platuma: 61-35N, ilguma: 005-02E, Aukštis: 0 m

Dabartinis oras

Ataskaita buvo paskelbta 27 minutes, ne 12:50 UTC
Vėjas 13 kt iš Šiaurės su gūsio iki 23 kt, svyruoja nuo Šiaurės/Šiaurės Vakarų ir Šiaurės/Šiaurės Rytų
Temperatūra 5°C
Drėgmė 65%
Slėgis 1024 hPa
Matomumas 10 km arba daugiau
Mažai debesys ne aukštis 1500 ft
Išsisklaidę debesys ne aukštis 3500 ft

METAR: ENFL 201250Z 36013G23KT 330V030 9999 FEW015 SCT035 05/M01 Q1024

Laikas: 15:17 (13:17 UTC)

Prognozė

Ataskaita buvo paskelbta 2 valandos ir 17 minutes, ne 11:00 UTC
Prognozė galioja nuo 20 metu 12 UTC su 20 metu 21 UTC
Vėjas 18 kt iš Šiaurės
Matomumas 10 km arba daugiau
Mažai debesys ne aukštis 1500 ft, aukštai iškilę kamuoliniai debesys.
Išsisklaidę debesys ne aukštis 3000 ft
lietus
Tapsmas
nuo 20 metu 18 UTC su 20 metu 21 UTC
Vėjas 8 kt iš Šiaurės/Šiaurės Rytų

TAF: ENFL 201100Z 2012/2021 35018KT 9999 -SHRA FEW015TCU SCT030 BECMG 2018/2021 03008KT

Orai ataskaitas ir orų prognozės (METAR, TAF).

turimą stotys yra geltonos ir raudonos taškus žemėlapyje.

Perkelti pele per norėdami pamatyti stoties vardą.

Tada spustelėkite, norėdami matyti oro stebėjimo ir prognozės.

Norėdami pakeisti žemėlapį: spustelėkite ant žalios mygtukų su juodo kryžiaus žemyn,; žalią mygtuką su brūkšneliu, jei norite nutolinti; arba žalių rodyklių gretimoms žemėlapius.


METAR-TAF: